createdAt,value
2023-02-08T00:01:20.952Z,27.73
2023-02-08T00:04:25.866Z,28.87
2023-02-08T00:07:29.387Z,30.43
2023-02-08T00:10:32.904Z,28.33
2023-02-08T00:13:36.381Z,28.43
2023-02-08T00:16:39.574Z,30.43
2023-02-08T00:19:44.207Z,26.87
2023-02-08T00:22:47.336Z,27.50
2023-02-08T00:25:50.900Z,27.97
2023-02-08T00:28:54.424Z,26.87
2023-02-08T00:31:57.673Z,25.67
2023-02-08T00:35:02.221Z,23.73
2023-02-08T00:38:05.908Z,25.13
2023-02-08T00:41:09.158Z,26.63
2023-02-08T00:44:12.328Z,24.07
2023-02-08T00:47:17.367Z,23.20
2023-02-08T00:50:22.257Z,27.40
2023-02-08T00:53:25.392Z,25.83
2023-02-08T00:56:28.601Z,25.90
2023-02-08T00:59:31.835Z,23.40
2023-02-08T01:02:35.030Z,26.10
2023-02-08T01:05:40.451Z,26.03
2023-02-08T01:08:45.155Z,27.60
2023-02-08T01:11:48.393Z,26.30
2023-02-08T01:14:52.660Z,25.97
2023-02-08T01:17:56.376Z,24.20
2023-02-08T01:21:09.956Z,27.63
2023-02-08T01:24:17.775Z,27.90
2023-02-08T01:27:21.004Z,25.60
2023-02-08T01:30:27.024Z,25.30
2023-02-08T01:33:30.174Z,27.27
2023-02-08T01:36:35.395Z,28.47
2023-02-08T01:39:38.911Z,30.90
2023-02-08T01:42:42.111Z,30.93
2023-02-08T01:45:45.416Z,27.17
2023-02-08T01:48:49.535Z,24.90
2023-02-08T01:52:01.604Z,27.87
2023-02-08T01:55:10.911Z,29.67
2023-02-08T01:58:15.056Z,29.07
2023-02-08T02:01:18.938Z,30.10
2023-02-08T02:04:22.957Z,27.57
2023-02-08T02:07:30.712Z,29.60
2023-02-08T02:10:36.038Z,29.47
2023-02-08T02:13:39.356Z,26.50
2023-02-08T02:16:42.669Z,25.27
2023-02-08T02:19:53.835Z,25.67
2023-02-08T02:23:37.158Z,23.73
2023-02-08T02:27:10.638Z,27.37
2023-02-08T02:30:58.556Z,25.23
2023-02-08T02:34:09.590Z,27.93
2023-02-08T02:37:27.111Z,26.50
2023-02-08T02:40:37.243Z,23.83
2023-02-08T02:43:46.573Z,27.00
2023-02-08T02:46:57.575Z,26.87
2023-02-08T02:50:08.086Z,26.40
2023-02-08T02:53:18.043Z,27.03
2023-02-08T02:56:24.557Z,27.10
2023-02-08T02:59:29.157Z,26.07
2023-02-08T03:02:32.759Z,27.97
2023-02-08T03:05:37.540Z,26.13
2023-02-08T03:09:19.390Z,27.00
2023-02-08T03:12:35.276Z,26.07
2023-02-08T03:15:50.718Z,24.07
2023-02-08T03:19:07.840Z,24.67
2023-02-08T03:22:18.278Z,25.20
2023-02-08T03:25:27.641Z,25.57
2023-02-08T03:28:36.980Z,21.90
2023-02-08T03:31:47.284Z,23.50
2023-02-08T03:34:55.129Z,20.90
2023-02-08T03:38:04.633Z,23.77
2023-02-08T03:41:11.845Z,20.37
2023-02-08T03:44:20.183Z,22.40
2023-02-08T03:47:26.464Z,23.80
2023-02-08T03:50:34.799Z,21.63
2023-02-08T03:53:43.296Z,20.67
2023-02-08T03:56:53.431Z,21.60
2023-02-08T04:00:01.142Z,22.80
2023-02-08T04:03:08.215Z,19.57
2023-02-08T04:06:11.622Z,22.13
2023-02-08T04:09:16.299Z,22.80
2023-02-08T04:12:20.089Z,21.43
2023-02-08T04:15:23.551Z,19.70
2023-02-08T04:18:26.923Z,19.53
2023-02-08T04:21:30.408Z,19.87
2023-02-08T04:24:35.231Z,18.60
2023-02-08T04:27:38.540Z,19.07
2023-02-08T04:30:43.196Z,21.47
2023-02-08T04:33:46.638Z,20.40
2023-02-08T04:36:49.984Z,22.37
2023-02-08T04:39:54.383Z,21.57
2023-02-08T04:42:57.900Z,21.27
2023-02-08T04:46:00.921Z,22.50
2023-02-08T04:49:04.187Z,21.83
2023-02-08T04:52:07.399Z,20.90
2023-02-08T04:55:12.067Z,20.37
2023-02-08T04:58:15.246Z,20.53
2023-02-08T05:01:18.461Z,21.77
2023-02-08T05:04:21.690Z,22.67
2023-02-08T05:07:25.236Z,20.93
2023-02-08T05:10:29.833Z,22.43
2023-02-08T05:13:33.048Z,22.80
2023-02-08T05:16:36.075Z,24.13
2023-02-08T05:19:39.227Z,22.57
2023-02-08T05:22:42.381Z,22.50
2023-02-08T05:25:47.019Z,21.97
2023-02-08T05:28:50.431Z,22.93
2023-02-08T05:31:53.682Z,22.53
2023-02-08T05:34:56.830Z,22.00
2023-02-08T05:38:22.613Z,20.30
2023-02-08T05:41:27.167Z,23.93
2023-02-08T05:44:30.285Z,22.10
2023-02-08T05:47:33.352Z,22.97
2023-02-08T05:50:36.559Z,23.77
2023-02-08T05:53:39.822Z,23.70
2023-02-08T05:56:44.654Z,22.50
2023-02-08T05:59:47.718Z,22.47
2023-02-08T06:02:50.882Z,22.00
2023-02-08T06:05:54.047Z,24.03
2023-02-08T06:08:57.316Z,23.30
2023-02-08T06:12:01.683Z,23.90
2023-02-08T06:15:05.085Z,23.30
2023-02-08T06:24:35.081Z,25.00
2023-02-08T06:27:39.695Z,23.07
2023-02-08T06:30:43.046Z,24.17
2023-02-08T06:33:46.321Z,22.73
2023-02-08T06:36:49.345Z,26.27
2023-02-08T06:39:52.397Z,23.17
2023-02-08T06:42:56.821Z,25.10
2023-02-08T06:46:00.055Z,24.33
2023-02-08T06:49:04.771Z,25.00
2023-02-08T06:52:07.849Z,24.60
2023-02-08T06:55:10.837Z,23.77
2023-02-08T06:58:15.397Z,23.93
2023-02-08T07:01:18.510Z,25.07
2023-02-08T07:04:21.795Z,25.57
2023-02-08T07:07:25.507Z,24.50
2023-02-08T07:10:28.689Z,26.97
2023-02-08T07:13:33.137Z,25.87
2023-02-08T07:16:36.321Z,26.90
2023-02-08T07:19:39.805Z,26.63
2023-02-08T07:22:43.569Z,25.30
2023-02-08T07:25:46.692Z,27.77
2023-02-08T07:28:52.483Z,27.80
2023-02-08T07:31:55.613Z,25.27
2023-02-08T07:34:58.879Z,27.23
2023-02-08T07:38:01.895Z,27.00
2023-02-08T07:41:06.462Z,27.30
2023-02-08T07:44:10.778Z,25.77
2023-02-08T07:47:13.940Z,26.40
2023-02-08T07:50:17.559Z,25.43
2023-02-08T07:53:20.894Z,25.37
2023-02-08T07:56:23.975Z,24.90
2023-02-08T07:59:29.878Z,24.03
2023-02-08T08:02:32.863Z,24.00
2023-02-08T08:05:35.954Z,24.70
2023-02-08T08:08:39.737Z,23.27
2023-02-08T08:11:42.922Z,24.60
2023-02-08T08:14:47.243Z,25.13
2023-02-08T08:17:50.297Z,22.70
2023-02-08T08:20:53.473Z,24.37
2023-02-08T08:23:56.499Z,26.27
2023-02-08T08:27:00.731Z,24.47
2023-02-08T08:30:06.915Z,25.53
2023-02-08T08:33:09.889Z,25.30
2023-02-08T08:36:14.346Z,26.33
2023-02-08T08:39:17.448Z,25.23
2023-02-08T08:42:21.026Z,24.40
2023-02-08T08:45:25.815Z,26.57
2023-02-08T08:48:29.216Z,26.60
2023-02-08T08:51:35.198Z,23.77
2023-02-08T08:54:38.794Z,24.67
2023-02-08T08:57:41.777Z,24.23
2023-02-08T09:00:46.383Z,24.13
2023-02-08T09:03:49.396Z,25.43
2023-02-08T09:06:53.095Z,27.03
2023-02-08T09:09:56.128Z,26.93
2023-02-08T09:12:59.267Z,27.93
2023-02-08T09:16:09.102Z,27.97
2023-02-08T09:19:12.536Z,26.87
2023-02-08T09:22:15.650Z,28.70
2023-02-08T09:25:18.725Z,23.70
2023-02-08T09:28:22.133Z,26.77
2023-02-08T09:31:28.464Z,28.30
2023-02-08T09:34:31.801Z,27.53
2023-02-08T09:37:35.104Z,27.17
2023-02-08T09:40:46.974Z,27.33
2023-02-08T09:44:01.686Z,25.97
2023-02-08T09:47:15.806Z,28.13
2023-02-08T09:50:24.018Z,28.40
2023-02-08T09:53:32.808Z,28.13
2023-02-08T09:56:40.631Z,29.00
2023-02-08T09:59:52.966Z,30.20
2023-02-08T10:03:01.203Z,28.93
2023-02-08T10:06:05.536Z,28.97
2023-02-08T10:09:14.814Z,29.53
2023-02-08T10:12:26.320Z,29.40
2023-02-08T10:15:37.487Z,28.90
2023-02-08T10:18:49.034Z,28.93
2023-02-08T10:22:04.091Z,27.93
2023-02-08T10:25:29.017Z,30.07
2023-02-08T10:28:55.525Z,29.60
2023-02-08T10:32:15.653Z,28.57
2023-02-08T10:35:27.398Z,28.40
2023-02-08T10:38:45.933Z,27.33
2023-02-08T10:41:50.095Z,28.20
2023-02-08T10:45:06.553Z,26.73
2023-02-08T10:48:21.525Z,28.43
2023-02-08T10:51:25.988Z,27.17
2023-02-08T10:54:28.963Z,27.77
2023-02-08T10:57:36.119Z,27.70
2023-02-08T11:00:41.002Z,28.30
2023-02-08T11:04:01.877Z,28.47
2023-02-08T11:07:21.001Z,27.23
2023-02-08T11:10:26.588Z,28.03
2023-02-08T11:13:36.712Z,28.23
2023-02-08T11:16:41.502Z,26.80
2023-02-08T11:19:46.353Z,28.83
2023-02-08T11:22:51.200Z,30.37
2023-02-08T11:25:55.572Z,29.27
2023-02-08T11:29:06.019Z,27.73
2023-02-08T11:32:19.433Z,28.73
2023-02-08T11:35:24.470Z,28.17
2023-02-08T11:38:29.637Z,26.73
2023-02-08T11:41:33.006Z,27.43
2023-02-08T11:44:38.126Z,27.50
2023-02-08T11:47:43.220Z,25.83
2023-02-08T11:50:46.232Z,27.97
2023-02-08T11:53:50.769Z,27.77
2023-02-08T11:57:03.802Z,27.27
2023-02-08T12:00:21.601Z,26.43
2023-02-08T12:03:31.149Z,27.00
2023-02-08T12:07:06.127Z,26.63
2023-02-08T12:10:19.548Z,25.63
2023-02-08T12:13:36.567Z,26.17
2023-02-08T12:17:00.520Z,27.00
2023-02-08T12:20:35.195Z,27.13
2023-02-08T12:23:57.648Z,26.60
2023-02-08T12:27:17.233Z,27.80
2023-02-08T12:30:28.374Z,28.57
2023-02-08T12:33:43.961Z,28.33
2023-02-08T12:37:18.749Z,26.10
2023-02-08T12:40:50.141Z,27.47
2023-02-08T12:44:02.367Z,26.23
2023-02-08T12:47:17.123Z,26.63
2023-02-08T12:50:28.052Z,26.50
2023-02-08T12:53:35.929Z,25.50
2023-02-08T12:56:46.605Z,25.53
2023-02-08T12:59:56.117Z,26.23
2023-02-08T13:03:07.367Z,27.30
2023-02-08T13:06:17.252Z,26.93
2023-02-08T13:09:35.387Z,27.07
2023-02-08T13:12:42.371Z,25.67
2023-02-08T13:15:53.138Z,26.67
2023-02-08T13:19:06.075Z,25.30
2023-02-08T13:22:09.569Z,27.00
2023-02-08T13:25:21.590Z,26.20
2023-02-08T13:28:26.872Z,27.93
2023-02-08T13:31:36.003Z,26.43
2023-02-08T13:34:44.716Z,28.50
2023-02-08T13:37:52.498Z,26.07
2023-02-08T13:41:16.405Z,26.87
2023-02-08T13:44:23.612Z,26.27
2023-02-08T13:47:30.842Z,25.53
2023-02-08T13:50:47.064Z,26.03
2023-02-08T13:54:13.419Z,26.93
2023-02-08T13:57:53.497Z,27.80
2023-02-08T14:01:14.943Z,25.23
2023-02-08T14:04:40.048Z,26.33
2023-02-08T14:07:46.140Z,25.63
2023-02-08T14:11:01.366Z,25.40
2023-02-08T14:14:07.156Z,26.70
2023-02-08T14:17:22.714Z,25.87
2023-02-08T14:20:30.656Z,26.13
2023-02-08T14:23:39.510Z,27.40
2023-02-08T14:26:43.686Z,26.57
2023-02-08T14:30:00.481Z,25.83
2023-02-08T14:33:20.029Z,25.00
2023-02-08T14:36:30.159Z,24.53
2023-02-08T14:39:35.450Z,25.53
2023-02-08T14:42:58.274Z,27.30
2023-02-08T14:46:34.412Z,26.10
2023-02-08T14:49:41.072Z,24.87
2023-02-08T14:52:53.607Z,25.63
2023-02-08T14:56:01.057Z,26.03
2023-02-08T14:59:09.052Z,25.30
2023-02-08T15:02:21.005Z,25.77
2023-02-08T15:05:26.318Z,22.53
2023-02-08T15:08:31.070Z,21.80
2023-02-08T15:11:35.561Z,22.47
2023-02-08T15:14:42.101Z,25.23
2023-02-08T15:17:48.180Z,25.13
2023-02-08T15:21:04.206Z,25.47
2023-02-08T15:24:16.827Z,23.73
2023-02-08T15:27:26.047Z,24.10
2023-02-08T15:30:40.588Z,24.70
2023-02-08T15:33:44.168Z,26.50
2023-02-08T15:36:51.266Z,25.70
2023-02-08T15:39:57.894Z,24.77
2023-02-08T15:43:05.891Z,25.17
2023-02-08T15:46:19.011Z,23.37
2023-02-08T15:49:27.847Z,25.07
2023-02-08T15:52:33.282Z,23.90
2023-02-08T15:55:48.203Z,23.03
2023-02-08T15:58:54.919Z,23.80
2023-02-08T16:02:01.686Z,21.97
2023-02-08T16:05:17.829Z,22.97
2023-02-08T16:08:24.336Z,23.63
2023-02-08T16:11:31.636Z,23.07
2023-02-08T16:14:51.608Z,23.13
2023-02-08T16:17:55.548Z,23.90
2023-02-08T16:20:59.347Z,24.33
2023-02-08T16:24:07.011Z,24.60
2023-02-08T16:27:24.920Z,24.10
2023-02-08T16:30:28.328Z,26.20
2023-02-08T16:33:32.577Z,24.10
2023-02-08T16:36:40.694Z,24.97
2023-02-08T16:40:02.407Z,24.63
2023-02-08T16:43:23.327Z,26.37
2023-02-08T16:46:27.745Z,25.53
2023-02-08T16:49:30.856Z,24.30
2023-02-08T16:52:34.605Z,24.17
2023-02-08T16:55:38.500Z,24.90
2023-02-08T16:58:48.494Z,24.50
2023-02-08T17:01:51.580Z,25.93
2023-02-08T17:04:54.658Z,26.57
2023-02-08T17:07:59.010Z,25.40
2023-02-08T17:11:05.076Z,27.20
2023-02-08T17:14:10.109Z,24.57
2023-02-08T17:17:13.499Z,25.13
2023-02-08T17:20:22.302Z,26.17
2023-02-08T17:23:25.301Z,24.33
2023-02-08T17:26:30.482Z,25.87
2023-02-08T17:29:34.869Z,26.13
2023-02-08T17:32:37.921Z,25.50
2023-02-08T17:35:41.177Z,27.23
2023-02-08T17:38:45.532Z,26.37
2023-02-08T17:41:48.688Z,25.67
2023-02-08T17:44:53.234Z,26.23
2023-02-08T17:47:57.291Z,24.57
2023-02-08T17:51:00.424Z,25.63
2023-02-08T17:54:05.816Z,26.80
2023-02-08T17:57:08.930Z,26.50
2023-02-08T18:00:16.887Z,26.67
2023-02-08T18:03:20.461Z,27.00
2023-02-08T18:06:25.045Z,23.60
2023-02-08T18:09:29.616Z,27.70
2023-02-08T18:12:32.848Z,26.20
2023-02-08T18:15:37.733Z,24.57
2023-02-08T18:18:41.384Z,25.60
2023-02-08T18:21:44.934Z,26.47
2023-02-08T18:24:48.315Z,28.37
2023-02-08T18:27:51.539Z,25.97
2023-02-08T18:31:02.422Z,26.50
2023-02-08T18:34:05.970Z,28.23
2023-02-08T18:37:11.788Z,26.57
2023-02-08T18:40:15.052Z,25.50
2023-02-08T18:43:18.585Z,25.23
2023-02-08T18:46:24.690Z,25.03
2023-02-08T18:49:27.800Z,25.13
2023-02-08T18:52:31.868Z,23.87
2023-02-08T18:55:35.182Z,25.23
2023-02-08T18:58:39.561Z,25.30
2023-02-08T19:01:48.729Z,23.77
2023-02-08T19:04:53.181Z,24.87
2023-02-08T19:07:57.415Z,24.03
2023-02-08T19:11:05.011Z,24.50
2023-02-08T19:14:11.860Z,24.97
2023-02-08T19:17:17.061Z,25.30
2023-02-08T19:20:21.613Z,23.83
2023-02-08T19:23:26.604Z,25.90
2023-02-08T19:26:36.675Z,24.67
2023-02-08T19:29:41.672Z,24.77
2023-02-08T19:32:46.549Z,25.73
2023-02-08T19:35:50.048Z,25.43
2023-02-08T19:38:54.064Z,25.33
2023-02-08T19:41:58.818Z,26.20
2023-02-08T19:45:02.612Z,24.53
2023-02-08T19:48:07.300Z,25.97
2023-02-08T19:51:10.603Z,25.17
2023-02-08T19:54:15.974Z,25.63
2023-02-08T19:57:19.202Z,25.37
2023-02-08T20:00:24.261Z,25.07
2023-02-08T20:03:29.000Z,24.90
2023-02-08T20:06:34.019Z,25.50
2023-02-08T20:09:37.701Z,24.53
2023-02-08T20:12:40.873Z,24.73
2023-02-08T20:15:44.991Z,23.27
2023-02-08T20:18:50.336Z,22.23
2023-02-08T20:21:54.220Z,23.47
2023-02-08T20:24:57.509Z,23.73
2023-02-08T20:28:01.275Z,22.47
2023-02-08T20:31:09.078Z,23.97
2023-02-08T20:34:15.769Z,23.07
2023-02-08T20:37:21.110Z,21.87
2023-02-08T20:40:24.319Z,22.07
2023-02-08T20:43:27.731Z,23.97
2023-02-08T20:46:33.843Z,22.10
2023-02-08T20:49:39.490Z,22.33
2023-02-08T20:52:45.031Z,23.07
2023-02-08T20:55:48.316Z,22.93
2023-02-08T20:58:51.975Z,22.03
2023-02-08T21:01:55.946Z,23.10
2023-02-08T21:05:00.621Z,22.67
2023-02-08T21:08:03.897Z,23.07
2023-02-08T21:11:07.589Z,22.27
2023-02-08T21:14:13.737Z,24.40
2023-02-08T21:17:16.935Z,23.00
2023-02-08T21:20:21.988Z,22.97
2023-02-08T21:23:25.375Z,23.73
2023-02-08T21:26:28.880Z,24.33
2023-02-08T21:29:32.669Z,23.40
2023-02-08T21:32:35.977Z,23.27
2023-02-08T21:35:40.894Z,21.73
2023-02-08T21:38:44.662Z,21.50
2023-02-08T21:41:48.321Z,21.67
2023-02-08T21:44:51.582Z,22.63
2023-02-08T21:47:54.783Z,21.83
2023-02-08T21:51:20.314Z,22.50
2023-02-08T21:54:44.695Z,23.43
2023-02-08T21:57:48.098Z,21.67
2023-02-08T22:00:51.409Z,21.77
2023-02-08T22:03:54.744Z,20.33
2023-02-08T22:06:59.532Z,21.53
2023-02-08T22:10:07.261Z,20.63
2023-02-08T22:13:10.470Z,20.67
2023-02-08T22:16:14.118Z,19.40
2023-02-08T22:19:17.842Z,20.37
2023-02-08T22:22:22.434Z,21.43
2023-02-08T22:25:26.012Z,19.47
2023-02-08T22:28:29.494Z,20.40
2023-02-08T22:31:33.034Z,21.20
2023-02-08T22:34:38.145Z,20.50
2023-02-08T22:37:42.963Z,20.53
2023-02-08T22:40:46.477Z,20.87
2023-02-08T22:43:50.729Z,20.67
2023-02-08T22:46:54.375Z,18.93
2023-02-08T22:49:58.984Z,18.77
2023-02-08T22:53:03.805Z,19.67
2023-02-08T22:56:07.557Z,21.87
2023-02-08T22:59:11.101Z,20.10
2023-02-08T23:02:17.159Z,18.87
2023-02-08T23:05:20.424Z,20.93
2023-02-08T23:08:25.180Z,19.47
2023-02-08T23:11:31.738Z,19.47
2023-02-08T23:14:35.832Z,18.67
2023-02-08T23:17:43.239Z,18.63
2023-02-08T23:20:47.841Z,19.13
2023-02-08T23:23:56.369Z,18.77
2023-02-08T23:26:59.999Z,16.97
2023-02-08T23:30:04.427Z,18.13
2023-02-08T23:33:08.593Z,18.33
2023-02-08T23:36:15.724Z,17.70
2023-02-08T23:39:20.833Z,17.90
2023-02-08T23:42:27.199Z,18.23
2023-02-08T23:45:30.697Z,18.37
2023-02-08T23:48:34.251Z,18.37
2023-02-08T23:51:37.721Z,18.30
2023-02-08T23:54:42.476Z,17.47
2023-02-08T23:57:47.893Z,18.07
